Time;durP1;ratioP1;P1;durP2;ratioP2;P2;SDS_P1;SDS_P2;PMS_P1;PMS_P2;Temp;Humidity;BMP_temperature;BMP_pressure;BME280_temperature;BME280_humidity;BME280_pressure;Samples;Min_cycle;Max_cycle;Signal;HPM_P1;HPM_P2
2023/03/01 00:02:07;;;;;;;4.45;1.40;;;;;;;;;;5069012;28;20115;-70
2023/03/01 00:04:35;;;;;;;1.20;1.20;;;;;;;;;;5068619;28;20218;-71
2023/03/01 00:07:01;;;;;;;1.00;1.00;;;;;;;;;;5068807;28;20028;-71
2023/03/01 00:09:27;;;;;;;1.10;1.10;;;;;;;;;;5068711;28;20028;-71
2023/03/01 00:11:53;;;;;;;1.52;1.40;;;;;;;;;;5068747;28;20465;-69
2023/03/01 00:14:19;;;;;;;0.82;0.82;;;;;;;;;;5050913;28;20086;-71
2023/03/01 00:16:45;;;;;;;2.90;1.60;;;;;;;;;;5050806;28;20028;-71
2023/03/01 00:19:13;;;;;;;2.88;1.70;;;;;;;;;;5069009;28;20032;-71
2023/03/01 00:21:39;;;;;;;1.65;1.40;;;;;;;;;;5050424;28;20024;-71
2023/03/01 00:24:05;;;;;;;5.22;1.35;;;;;;;;;;5069649;28;20115;-70
2023/03/01 00:26:32;;;;;;;1.23;1.15;;;;;;;;;;5070841;28;20060;-74
2023/03/01 00:28:58;;;;;;;1.27;1.17;;;;;;;;;;5051345;28;20040;-70
2023/03/01 00:31:25;;;;;;;1.10;1.10;;;;;;;;;;5050828;28;20048;-70
2023/03/01 00:33:57;;;;;;;1.10;1.10;;;;;;;;;;5030373;28;20456;-70
2023/03/01 00:36:24;;;;;;;1.10;1.10;;;;;;;;;;5065820;28;20029;-70
2023/03/01 00:38:50;;;;;;;1.75;1.17;;;;;;;;;;5068435;28;20056;-70
2023/03/01 00:41:16;;;;;;;4.03;1.10;;;;;;;;;;5068389;28;20385;-71
2023/03/01 00:43:42;;;;;;;1.10;1.02;;;;;;;;;;5068508;28;20448;-70
2023/03/01 00:46:12;;;;;;;1.02;1.02;;;;;;;;;;5050470;28;20035;-69
2023/03/01 00:48:38;;;;;;;2.92;1.20;;;;;;;;;;5068318;28;20047;-71
2023/03/01 00:51:06;;;;;;;1.40;1.35;;;;;;;;;;5030071;28;20032;-70
2023/03/01 00:53:32;;;;;;;1.33;1.23;;;;;;;;;;5059615;28;20063;-71
2023/03/01 00:55:58;;;;;;;1.77;1.67;;;;;;;;;;5067493;28;20025;-70
2023/03/01 00:58:24;;;;;;;1.48;1.38;;;;;;;;;;5050361;28;20040;-68
2023/03/01 01:00:52;;;;;;;2.55;1.33;;;;;;;;;;5067490;28;20028;-70
2023/03/01 01:03:18;;;;;;;1.63;1.52;;;;;;;;;;5067938;28;20525;-72
2023/03/01 01:05:44;;;;;;;3.30;1.02;;;;;;;;;;5049925;28;20048;-70
2023/03/01 01:08:10;;;;;;;7.43;1.10;;;;;;;;;;5068013;28;20427;-70
2023/03/01 01:10:36;;;;;;;1.05;1.05;;;;;;;;;;5049481;28;20500;-71
2023/03/01 01:13:02;;;;;;;7.03;2.38;;;;;;;;;;5067919;28;20051;-71
2023/03/01 01:15:28;;;;;;;1.58;1.30;;;;;;;;;;5068705;28;20408;-69
2023/03/01 01:17:54;;;;;;;1.98;1.60;;;;;;;;;;5070085;28;20702;-70
2023/03/01 01:20:21;;;;;;;1.20;1.10;;;;;;;;;;5069513;28;20028;-69
2023/03/01 01:22:47;;;;;;;1.23;1.23;;;;;;;;;;5068767;28;20415;-69
2023/03/01 01:25:13;;;;;;;2.10;1.90;;;;;;;;;;5051797;28;20032;-71
2023/03/01 01:27:39;;;;;;;1.77;1.20;;;;;;;;;;5050957;28;20170;-71
2023/03/01 01:30:05;;;;;;;1.15;1.15;;;;;;;;;;5068643;28;20032;-70
2023/03/01 01:32:31;;;;;;;1.85;1.35;;;;;;;;;;5033600;28;20140;-70
2023/03/01 01:34:57;;;;;;;0.90;0.90;;;;;;;;;;5049447;28;20104;-69
2023/03/01 01:37:31;;;;;;;1.35;1.35;;;;;;;;;;5050264;28;20496;-70
2023/03/01 01:39:58;;;;;;;2.20;1.38;;;;;;;;;;5067751;28;20445;-71
2023/03/01 01:42:25;;;;;;;1.33;1.20;;;;;;;;;;5049873;28;20037;-69
2023/03/01 01:45:09;;;;;;;1.30;1.27;;;;;;;;;;5067562;28;20082;-71
2023/03/01 01:47:36;;;;;;;1.92;1.73;;;;;;;;;;5067431;28;20534;-70
2023/03/01 01:50:02;;;;;;;1.40;1.38;;;;;;;;;;5032995;28;20097;-71
2023/03/01 01:52:33;;;;;;;1.40;1.30;;;;;;;;;;5049431;28;20609;-71
2023/03/01 01:55:00;;;;;;;2.08;1.10;;;;;;;;;;5039336;28;20586;-71
2023/03/01 01:57:27;;;;;;;1.45;1.35;;;;;;;;;;5063666;28;20115;-71
2023/03/01 01:59:54;;;;;;;0.85;0.85;;;;;;;;;;5066127;28;20025;-71
2023/03/01 02:02:21;;;;;;;1.15;1.15;;;;;;;;;;5049398;28;20036;-70
2023/03/01 02:04:48;;;;;;;1.50;1.40;;;;;;;;;;5067172;28;20025;-73
2023/03/01 02:07:15;;;;;;;2.63;1.27;;;;;;;;;;5050360;28;20075;-71
2023/03/01 02:09:42;;;;;;;5.18;1.25;;;;;;;;;;5072378;28;20038;-71
2023/03/01 02:12:08;;;;;;;1.20;1.20;;;;;;;;;;5051843;28;20036;-70
2023/03/01 02:14:34;;;;;;;1.48;1.38;;;;;;;;;;5049267;28;20043;-71
2023/03/01 02:17:00;;;;;;;1.40;1.30;;;;;;;;;;5067163;28;20672;-70
2023/03/01 02:19:30;;;;;;;1.77;1.67;;;;;;;;;;5049155;28;20032;-71
2023/03/01 02:22:01;;;;;;;1.10;1.10;;;;;;;;;;5067025;28;20097;-71
2023/03/01 02:24:49;;;;;;;1.30;1.30;;;;;;;;;;5070276;28;20075;-70
2023/03/01 02:27:16;;;;;;;0.85;0.85;;;;;;;;;;5069644;28;20135;-69
2023/03/01 02:29:43;;;;;;;1.35;1.25;;;;;;;;;;5035899;28;20127;-70
2023/03/01 02:32:10;;;;;;;2.10;1.40;;;;;;;;;;5052989;28;20044;-71
2023/03/01 02:34:36;;;;;;;1.75;1.30;;;;;;;;;;5052581;28;20078;-70
2023/03/01 02:37:07;;;;;;;1.77;1.27;;;;;;;;;;5052547;28;20060;-71
2023/03/01 02:39:37;;;;;;;1.00;1.00;;;;;;;;;;5052577;28;20033;-72
2023/03/01 02:42:06;;;;;;;2.08;0.90;;;;;;;;;;5036383;28;20105;-71
2023/03/01 02:44:33;;;;;;;1.17;1.17;;;;;;;;;;5019667;28;20115;-72
2023/03/01 02:47:00;;;;;;;1.25;1.15;;;;;;;;;;5070457;28;20040;-71
2023/03/01 02:49:27;;;;;;;1.58;1.48;;;;;;;;;;5052463;28;20483;-71
2023/03/01 02:51:57;;;;;;;1.52;1.52;;;;;;;;;;5052237;28;20533;-71
2023/03/01 02:54:41;;;;;;;1.55;1.48;;;;;;;;;;5069756;28;20062;-71
2023/03/01 02:57:08;;;;;;;1.55;1.48;;;;;;;;;;5052180;28;20571;-71
2023/03/01 02:59:39;;;;;;;1.25;1.25;;;;;;;;;;5052248;28;20479;-71
2023/03/01 03:02:07;;;;;;;1.92;1.52;;;;;;;;;;5032060;28;20064;-71
2023/03/01 03:04:36;;;;;;;2.83;1.52;;;;;;;;;;5042675;28;20033;-71
2023/03/01 03:07:02;;;;;;;1.20;1.17;;;;;;;;;;5064994;28;20043;-71
2023/03/01 03:09:28;;;;;;;1.60;1.50;;;;;;;;;;5069773;28;20040;-71
2023/03/01 03:11:56;;;;;;;1.60;1.50;;;;;;;;;;5069340;28;20090;-70
2023/03/01 03:14:23;;;;;;;2.88;1.60;;;;;;;;;;5052209;28;20028;-70
2023/03/01 03:16:49;;;;;;;1.33;1.30;;;;;;;;;;5052857;28;20032;-70
2023/03/01 03:19:16;;;;;;;1.67;1.58;;;;;;;;;;5036681;28;20036;-70
2023/03/01 03:21:42;;;;;;;1.38;1.30;;;;;;;;;;5050667;28;20033;-70
2023/03/01 03:24:08;;;;;;;1.67;1.63;;;;;;;;;;5069575;28;20021;-71
2023/03/01 03:26:34;;;;;;;2.03;0.90;;;;;;;;;;5069053;28;20064;-70
2023/03/01 03:29:01;;;;;;;1.15;1.15;;;;;;;;;;5069949;28;20029;-70
2023/03/01 03:31:29;;;;;;;1.52;1.42;;;;;;;;;;5049080;28;20530;-71
2023/03/01 03:33:58;;;;;;;1.70;1.27;;;;;;;;;;5069258;28;20041;-70
2023/03/01 03:36:24;;;;;;;1.38;1.27;;;;;;;;;;5067358;28;20424;-71
2023/03/01 03:38:50;;;;;;;3.22;1.40;;;;;;;;;;5069388;28;20127;-70
2023/03/01 03:41:17;;;;;;;1.23;1.10;;;;;;;;;;5060710;28;20037;-71
2023/03/01 03:43:43;;;;;;;1.50;1.40;;;;;;;;;;5050716;28;20033;-71
2023/03/01 03:46:09;;;;;;;4.00;1.27;;;;;;;;;;5053022;28;20532;-71
2023/03/01 03:48:41;;;;;;;1.73;1.60;;;;;;;;;;5052143;28;20516;-71
2023/03/01 03:51:06;;;;;;;2.00;1.80;;;;;;;;;;5050494;28;20389;-71
2023/03/01 03:53:33;;;;;;;1.70;1.60;;;;;;;;;;5048598;28;20045;-70
2023/03/01 03:55:59;;;;;;;1.80;1.70;;;;;;;;;;5051527;28;20025;-70
2023/03/01 03:58:25;;;;;;;1.40;1.40;;;;;;;;;;5051485;28;20056;-70
2023/03/01 04:00:52;;;;;;;2.05;1.95;;;;;;;;;;5050685;28;20415;-70
2023/03/01 04:03:18;;;;;;;1.63;1.52;;;;;;;;;;5051702;28;20039;-70
2023/03/01 04:05:44;;;;;;;2.50;1.98;;;;;;;;;;5061696;28;20055;-70
2023/03/01 04:08:10;;;;;;;1.63;1.52;;;;;;;;;;5057258;28;20025;-71
2023/03/01 04:10:37;;;;;;;1.65;1.55;;;;;;;;;;5057046;28;20038;-71
2023/03/01 04:13:07;;;;;;;1.20;1.20;;;;;;;;;;5060401;28;20043;-70
2023/03/01 04:15:33;;;;;;;2.72;1.60;;;;;;;;;;5051619;28;20079;-71
2023/03/01 04:17:59;;;;;;;1.27;1.27;;;;;;;;;;5067815;28;20028;-70
2023/03/01 04:20:26;;;;;;;1.33;1.30;;;;;;;;;;5048631;28;20024;-70
2023/03/01 04:22:54;;;;;;;1.95;1.80;;;;;;;;;;5048323;28;20034;-71
2023/03/01 04:25:20;;;;;;;2.28;1.40;;;;;;;;;;5041007;28;20103;-70
2023/03/01 04:27:46;;;;;;;1.70;1.60;;;;;;;;;;5040550;28;20055;-70
2023/03/01 04:30:15;;;;;;;1.85;1.70;;;;;;;;;;5147783;22;20052;-74
2023/03/01 04:32:41;;;;;;;1.60;1.50;;;;;;;;;;5046987;28;20044;-74
2023/03/01 04:35:07;;;;;;;1.42;1.42;;;;;;;;;;5050351;28;20617;-73
2023/03/01 04:37:34;;;;;;;1.92;1.75;;;;;;;;;;5036008;28;20036;-74
2023/03/01 04:40:15;;;;;;;2.70;2.00;;;;;;;;;;5040880;28;20020;-73
2023/03/01 04:42:42;;;;;;;1.13;1.13;;;;;;;;;;5064597;28;20114;-73
2023/03/01 04:45:12;;;;;;;2.17;1.30;;;;;;;;;;5066687;28;20135;-74
2023/03/01 04:47:39;;;;;;;1.52;1.48;;;;;;;;;;5069185;28;20529;-75
2023/03/01 04:50:05;;;;;;;2.55;1.70;;;;;;;;;;5063636;28;20044;-73
2023/03/01 04:52:31;;;;;;;2.78;1.75;;;;;;;;;;5062369;28;20087;-74
2023/03/01 04:54:57;;;;;;;4.15;1.92;;;;;;;;;;5069068;28;20497;-74
2023/03/01 04:57:23;;;;;;;3.03;2.20;;;;;;;;;;5069688;28;20048;-74
2023/03/01 04:59:49;;;;;;;1.75;1.48;;;;;;;;;;5069249;28;20033;-75
2023/03/01 05:02:16;;;;;;;2.20;2.00;;;;;;;;;;5069187;28;20522;-73
2023/03/01 05:04:42;;;;;;;1.85;1.75;;;;;;;;;;5034255;28;20037;-73
2023/03/01 05:07:08;;;;;;;1.98;1.88;;;;;;;;;;5051427;28;20029;-73
2023/03/01 05:09:34;;;;;;;1.80;1.70;;;;;;;;;;5069644;28;20040;-73
2023/03/01 05:12:00;;;;;;;1.48;1.38;;;;;;;;;;5070582;28;20534;-76
2023/03/01 05:14:26;;;;;;;2.17;1.77;;;;;;;;;;5071644;28;20100;-76
2023/03/01 05:16:51;;;;;;;1.38;1.38;;;;;;;;;;5070786;28;20040;-75
2023/03/01 05:19:22;;;;;;;3.85;1.92;;;;;;;;;;5057194;28;20036;-75
2023/03/01 05:22:03;;;;;;;6.57;2.03;;;;;;;;;;5069860;28;20036;-75
2023/03/01 05:24:30;;;;;;;1.70;1.60;;;;;;;;;;5069203;28;20036;-75
2023/03/01 05:26:56;;;;;;;1.38;1.38;;;;;;;;;;5056861;28;20041;-73
2023/03/01 05:29:24;;;;;;;1.90;1.80;;;;;;;;;;5065853;28;20194;-73
2023/03/01 05:31:54;;;;;;;2.40;1.90;;;;;;;;;;5067886;28;20061;-74
2023/03/01 05:34:25;;;;;;;2.05;1.70;;;;;;;;;;5054951;28;20106;-73
2023/03/01 05:36:52;;;;;;;2.10;1.90;;;;;;;;;;5050250;28;20039;-73
2023/03/01 05:39:22;;;;;;;2.67;2.20;;;;;;;;;;5067840;28;20619;-72
2023/03/01 05:41:48;;;;;;;2.13;1.92;;;;;;;;;;5067802;28;20527;-73
2023/03/01 05:44:14;;;;;;;2.15;2.00;;;;;;;;;;5067839;28;20109;-74
2023/03/01 05:46:40;;;;;;;4.88;2.33;;;;;;;;;;5050045;28;20542;-74
2023/03/01 05:49:06;;;;;;;1.83;1.73;;;;;;;;;;5049886;28;20052;-74
2023/03/01 05:51:33;;;;;;;1.30;1.30;;;;;;;;;;5067998;28;20120;-74
2023/03/01 05:54:00;;;;;;;2.03;1.92;;;;;;;;;;5033398;28;20052;-73
2023/03/01 05:56:26;;;;;;;2.47;1.95;;;;;;;;;;5067777;28;20513;-73
2023/03/01 05:58:52;;;;;;;1.30;1.30;;;;;;;;;;5073612;28;20040;-73
2023/03/01 06:01:18;;;;;;;2.42;1.63;;;;;;;;;;5070731;28;20090;-73
2023/03/01 06:03:44;;;;;;;1.60;1.55;;;;;;;;;;5071652;28;20127;-73
2023/03/01 06:06:09;;;;;;;2.50;1.83;;;;;;;;;;5070262;28;20046;-72
2023/03/01 06:08:35;;;;;;;2.88;2.03;;;;;;;;;;5053541;28;20039;-73
2023/03/01 06:11:01;;;;;;;2.47;1.80;;;;;;;;;;5070806;28;20043;-72
2023/03/01 06:13:27;;;;;;;3.20;1.65;;;;;;;;;;5071373;28;20647;-72
2023/03/01 06:15:53;;;;;;;2.08;1.98;;;;;;;;;;5070800;28;20044;-72
2023/03/01 06:18:19;;;;;;;1.67;1.63;;;;;;;;;;5071545;28;20541;-74
2023/03/01 06:20:51;;;;;;;6.13;2.05;;;;;;;;;;5070488;28;20048;-74
2023/03/01 06:23:17;;;;;;;1.75;1.65;;;;;;;;;;5053526;28;20131;-73
2023/03/01 06:25:44;;;;;;;4.30;2.05;;;;;;;;;;5070661;28;20072;-73
2023/03/01 06:28:10;;;;;;;2.13;1.77;;;;;;;;;;5043210;28;20400;-73
2023/03/01 06:30:36;;;;;;;1.17;1.17;;;;;;;;;;5019482;28;20055;-73
2023/03/01 06:33:02;;;;;;;2.85;2.00;;;;;;;;;;5070466;28;20044;-75
2023/03/01 06:35:31;;;;;;;4.03;1.90;;;;;;;;;;5071081;28;20404;-74
2023/03/01 06:38:01;;;;;;;2.50;2.30;;;;;;;;;;5039642;28;20678;-73
2023/03/01 06:40:30;;;;;;;2.33;1.80;;;;;;;;;;5070780;28;20028;-73
2023/03/01 06:42:56;;;;;;;4.57;1.83;;;;;;;;;;5070482;28;20036;-73
2023/03/01 06:45:23;;;;;;;6.22;2.00;;;;;;;;;;5070580;28;20037;-72
2023/03/01 06:47:49;;;;;;;4.88;1.40;;;;;;;;;;5069983;28;20127;-74
2023/03/01 06:50:18;;;;;;;2.95;2.17;;;;;;;;;;5041669;28;20033;-76
2023/03/01 06:52:44;;;;;;;2.45;1.80;;;;;;;;;;5067513;28;20048;-74
2023/03/01 06:55:11;;;;;;;1.98;1.80;;;;;;;;;;5052320;28;20107;-73
2023/03/01 06:57:38;;;;;;;5.78;2.70;;;;;;;;;;5052438;28;20043;-73
2023/03/01 07:00:04;;;;;;;3.53;2.53;;;;;;;;;;5036320;28;20408;-73
2023/03/01 07:02:31;;;;;;;3.90;2.13;;;;;;;;;;5069986;28;20040;-74
2023/03/01 07:04:57;;;;;;;3.25;2.05;;;;;;;;;;5071199;28;20178;-77
2023/03/01 07:07:26;;;;;;;2.83;1.65;;;;;;;;;;5071107;28;20407;-76
2023/03/01 07:09:53;;;;;;;4.75;2.28;;;;;;;;;;5053310;28;20047;-74
2023/03/01 07:12:18;;;;;;;2.00;1.90;;;;;;;;;;5070372;28;20051;-74
2023/03/01 07:14:44;;;;;;;4.28;2.10;;;;;;;;;;5070619;28;20443;-74
2023/03/01 07:17:11;;;;;;;2.95;1.90;;;;;;;;;;5069851;28;20033;-73
2023/03/01 07:19:37;;;;;;;2.10;2.00;;;;;;;;;;5050863;28;20029;-73
2023/03/01 07:22:04;;;;;;;2.47;2.28;;;;;;;;;;5066988;28;20142;-74
2023/03/01 07:24:30;;;;;;;2.38;2.28;;;;;;;;;;5052693;28;20025;-73
2023/03/01 07:26:56;;;;;;;2.15;1.90;;;;;;;;;;5070175;28;20039;-72
2023/03/01 07:29:22;;;;;;;2.25;2.05;;;;;;;;;;5052338;28;20033;-74
2023/03/01 07:31:48;;;;;;;2.60;2.13;;;;;;;;;;5062098;28;20094;-75
2023/03/01 07:34:14;;;;;;;1.60;1.60;;;;;;;;;;5052298;28;20036;-72
2023/03/01 07:36:42;;;;;;;2.50;2.30;;;;;;;;;;5052715;28;20123;-75
2023/03/01 07:39:09;;;;;;;2.15;2.05;;;;;;;;;;5070182;28;20032;-74
2023/03/01 07:41:35;;;;;;;3.25;2.45;;;;;;;;;;5069906;28;20488;-73
2023/03/01 07:44:01;;;;;;;2.28;2.08;;;;;;;;;;5056427;28;20047;-74
2023/03/01 07:46:27;;;;;;;2.40;2.20;;;;;;;;;;5070070;28;20112;-74
2023/03/01 07:48:53;;;;;;;1.88;1.77;;;;;;;;;;5051967;28;20646;-76
2023/03/01 07:51:19;;;;;;;3.53;2.00;;;;;;;;;;5070446;28;20036;-77
2023/03/01 07:53:48;;;;;;;2.33;2.17;;;;;;;;;;5070161;28;20049;-77
2023/03/01 07:56:17;;;;;;;2.00;1.90;;;;;;;;;;5070180;28;20111;-77
2023/03/01 07:58:43;;;;;;;3.03;2.40;;;;;;;;;;5069942;28;20033;-77
2023/03/01 08:01:11;;;;;;;2.55;2.35;;;;;;;;;;5052000;28;20558;-77
2023/03/01 08:03:36;;;;;;;2.00;1.90;;;;;;;;;;5069737;28;20039;-77
2023/03/01 08:06:03;;;;;;;2.35;2.20;;;;;;;;;;5060690;28;20599;-78
2023/03/01 08:08:29;;;;;;;3.67;2.53;;;;;;;;;;5062874;28;20032;-78
2023/03/01 08:10:58;;;;;;;3.83;2.60;;;;;;;;;;5060197;28;20061;-76
2023/03/01 08:13:24;;;;;;;1.98;1.88;;;;;;;;;;5051898;28;20047;-76
2023/03/01 08:15:50;;;;;;;2.47;2.28;;;;;;;;;;5068059;28;20520;-77
2023/03/01 08:18:17;;;;;;;3.53;2.03;;;;;;;;;;5053536;28;20040;-76
2023/03/01 08:20:43;;;;;;;2.83;1.92;;;;;;;;;;5068881;28;20119;-77
2023/03/01 08:23:09;;;;;;;3.78;2.28;;;;;;;;;;5051316;28;20130;-77
2023/03/01 08:25:34;;;;;;;2.42;2.10;;;;;;;;;;5069356;28;20086;-76
2023/03/01 08:28:00;;;;;;;2.97;2.13;;;;;;;;;;5069161;28;20036;-77
2023/03/01 08:30:27;;;;;;;2.55;2.35;;;;;;;;;;5069251;28;20797;-77
2023/03/01 08:32:53;;;;;;;2.78;2.58;;;;;;;;;;5068755;28;20044;-76
2023/03/01 08:35:19;;;;;;;2.50;1.95;;;;;;;;;;5069744;28;20499;-77
2023/03/01 08:37:45;;;;;;;2.00;1.80;;;;;;;;;;5069096;28;20063;-77
2023/03/01 08:40:13;;;;;;;2.05;1.95;;;;;;;;;;5070515;28;20119;-76
2023/03/01 08:42:39;;;;;;;13.38;3.17;;;;;;;;;;5069706;28;20620;-77
2023/03/01 08:45:09;;;;;;;3.63;2.50;;;;;;;;;;5037734;28;20059;-77
2023/03/01 08:47:35;;;;;;;1.77;1.73;;;;;;;;;;5046984;28;20029;-76
2023/03/01 08:50:01;;;;;;;2.30;1.90;;;;;;;;;;5064116;28;20610;-76
2023/03/01 08:52:29;;;;;;;2.92;2.25;;;;;;;;;;5050158;28;20036;-74
2023/03/01 08:54:55;;;;;;;3.25;2.10;;;;;;;;;;5067438;28;20037;-75
2023/03/01 08:57:22;;;;;;;3.28;2.80;;;;;;;;;;5049838;28;20039;-74
2023/03/01 08:59:48;;;;;;;9.55;2.30;;;;;;;;;;5068757;28;20036;-75
2023/03/01 09:02:14;;;;;;;3.35;2.00;;;;;;;;;;5068344;28;20554;-74
2023/03/01 09:04:40;;;;;;;3.05;2.28;;;;;;;;;;5068404;28;20044;-76
2023/03/01 09:07:06;;;;;;;3.08;2.42;;;;;;;;;;5068525;28;20048;-75
2023/03/01 09:09:33;;;;;;;5.07;2.50;;;;;;;;;;5068239;28;20055;-74
2023/03/01 09:11:59;;;;;;;2.75;2.17;;;;;;;;;;5068757;28;20029;-75
2023/03/01 09:14:26;;;;;;;1.85;1.75;;;;;;;;;;5068841;28;20054;-76
2023/03/01 09:16:52;;;;;;;2.65;2.25;;;;;;;;;;5050531;28;20483;-76
2023/03/01 09:19:18;;;;;;;2.33;2.00;;;;;;;;;;5069043;28;20123;-75
2023/03/01 09:21:55;;;;;;;4.35;2.20;;;;;;;;;;5069710;28;20131;-76
2023/03/01 09:24:22;;;;;;;4.90;2.20;;;;;;;;;;5068858;28;20044;-76
2023/03/01 09:26:48;;;;;;;3.70;2.00;;;;;;;;;;5068924;28;20063;-76
2023/03/01 09:29:14;;;;;;;4.07;2.25;;;;;;;;;;5068813;28;20519;-76
2023/03/01 09:31:43;;;;;;;1.80;1.70;;;;;;;;;;5068848;28;20123;-75
2023/03/01 09:34:09;;;;;;;1.80;1.70;;;;;;;;;;5050675;28;20037;-75
2023/03/01 09:36:35;;;;;;;2.45;2.20;;;;;;;;;;5069084;28;20040;-73
2023/03/01 09:39:02;;;;;;;7.95;2.25;;;;;;;;;;5068890;28;20048;-75
2023/03/01 09:41:37;;;;;;;1.75;1.65;;;;;;;;;;5051058;28;20051;-74
2023/03/01 09:44:20;;;;;;;3.38;2.50;;;;;;;;;;5064130;28;20439;-75
2023/03/01 09:46:46;;;;;;;2.75;2.55;;;;;;;;;;5043714;28;20043;-75
2023/03/01 09:49:16;;;;;;;2.38;2.17;;;;;;;;;;5033632;28;20433;-76
2023/03/01 09:51:42;;;;;;;2.33;2.13;;;;;;;;;;5058575;28;20107;-76
2023/03/01 09:54:10;;;;;;;2.78;2.10;;;;;;;;;;5039706;28;20139;-74
2023/03/01 09:56:39;;;;;;;2.70;2.50;;;;;;;;;;5042221;28;20032;-74
2023/03/01 09:59:14;;;;;;;3.90;2.30;;;;;;;;;;5059522;28;20076;-74
2023/03/01 10:01:55;;;;;;;4.03;1.88;;;;;;;;;;5049598;28;20472;-74
2023/03/01 10:04:25;;;;;;;1.95;1.85;;;;;;;;;;5042298;28;20043;-75
2023/03/01 10:06:54;;;;;;;1.70;1.60;;;;;;;;;;5064970;28;20059;-73
2023/03/01 10:09:21;;;;;;;2.45;2.25;;;;;;;;;;5054633;28;20044;-75
2023/03/01 10:11:48;;;;;;;1.98;1.88;;;;;;;;;;5030127;28;20662;-75
2023/03/01 10:14:27;;;;;;;1.90;1.80;;;;;;;;;;5063378;28;20616;-75
2023/03/01 10:16:54;;;;;;;2.65;2.08;;;;;;;;;;5067939;28;20578;-76
2023/03/01 10:19:22;;;;;;;3.25;2.45;;;;;;;;;;5032924;28;20495;-77
2023/03/01 10:21:48;;;;;;;4.55;2.05;;;;;;;;;;5067508;28;20128;-75
2023/03/01 10:24:15;;;;;;;3.00;2.17;;;;;;;;;;5033152;28;20139;-77
2023/03/01 10:26:44;;;;;;;2.53;2.00;;;;;;;;;;5033064;28;20500;-75
2023/03/01 10:29:11;;;;;;;2.05;1.95;;;;;;;;;;5068425;28;20032;-75
2023/03/01 10:31:46;;;;;;;2.08;1.98;;;;;;;;;;5067930;28;20036;-75
2023/03/01 10:34:14;;;;;;;2.40;2.20;;;;;;;;;;5059636;28;20048;-75
2023/03/01 10:36:40;;;;;;;1.85;1.75;;;;;;;;;;5067455;28;20068;-74
2023/03/01 10:39:11;;;;;;;3.15;2.30;;;;;;;;;;5050354;28;20586;-75
2023/03/01 10:41:40;;;;;;;3.22;1.48;;;;;;;;;;5068392;28;20028;-75
2023/03/01 10:44:09;;;;;;;2.17;2.08;;;;;;;;;;5051879;28;20033;-77
2023/03/01 10:46:36;;;;;;;2.13;1.77;;;;;;;;;;5053660;28;20040;-78
2023/03/01 10:49:12;;;;;;;2.00;1.90;;;;;;;;;;5053029;28;20143;-77
2023/03/01 10:51:39;;;;;;;2.20;2.10;;;;;;;;;;5053751;28;20038;-76
2023/03/01 10:54:05;;;;;;;3.25;2.10;;;;;;;;;;5071497;28;20048;-76
2023/03/01 10:56:35;;;;;;;2.85;2.40;;;;;;;;;;5071244;28;20538;-76
2023/03/01 10:59:04;;;;;;;1.20;1.20;;;;;;;;;;5053097;28;20028;-76
2023/03/01 11:01:31;;;;;;;3.58;1.92;;;;;;;;;;5052752;28;20033;-75
2023/03/01 11:04:07;;;;;;;2.90;2.05;;;;;;;;;;5070482;28;20028;-76
2023/03/01 11:06:36;;;;;;;2.55;2.10;;;;;;;;;;5052910;28;20205;-77
2023/03/01 11:09:21;;;;;;;1.80;1.70;;;;;;;;;;5068958;28;20407;-77
2023/03/01 11:11:54;;;;;;;1.85;1.75;;;;;;;;;;5067454;28;20035;-76
2023/03/01 11:14:23;;;;;;;1.83;1.73;;;;;;;;;;5042752;28;20044;-76
2023/03/01 11:17:03;;;;;;;1.75;1.65;;;;;;;;;;5067607;28;20055;-76
2023/03/01 11:19:29;;;;;;;2.45;2.22;;;;;;;;;;5053306;28;20037;-76
2023/03/01 11:22:11;;;;;;;1.80;1.70;;;;;;;;;;5070279;28;20123;-76
2023/03/01 11:24:45;;;;;;;2.78;1.55;;;;;;;;;;5072044;28;20048;-76
2023/03/01 11:27:14;;;;;;;2.35;2.15;;;;;;;;;;5054071;28;20038;-76
2023/03/01 11:29:41;;;;;;;1.92;1.83;;;;;;;;;;5053794;28;20048;-76
2023/03/01 11:32:08;;;;;;;3.88;1.67;;;;;;;;;;5070599;28;20034;-77
2023/03/01 11:34:52;;;;;;;1.40;1.40;;;;;;;;;;5053528;28;20035;-77
2023/03/01 11:37:39;;;;;;;1.77;1.67;;;;;;;;;;5059057;28;20044;-76
2023/03/01 11:40:12;;;;;;;2.00;1.80;;;;;;;;;;5048167;28;20040;-75
2023/03/01 11:42:48;;;;;;;1.83;1.73;;;;;;;;;;5075683;28;20165;-76
2023/03/01 11:45:15;;;;;;;4.55;1.48;;;;;;;;;;5082293;28;20040;-77
2023/03/01 11:47:41;;;;;;;4.05;1.83;;;;;;;;;;5078877;28;20025;-76
2023/03/01 11:50:07;;;;;;;3.35;2.08;;;;;;;;;;5082085;28;20043;-77
2023/03/01 11:52:36;;;;;;;1.90;1.80;;;;;;;;;;5081025;28;20047;-76
2023/03/01 11:55:20;;;;;;;2.28;1.88;;;;;;;;;;5081778;28;20048;-78
2023/03/01 11:58:06;;;;;;;1.48;1.48;;;;;;;;;;5072773;28;20029;-77
2023/03/01 12:00:49;;;;;;;6.95;2.22;;;;;;;;;;5052811;28;20032;-78
2023/03/01 12:03:24;;;;;;;2.08;1.98;;;;;;;;;;5052315;28;20120;-76
2023/03/01 12:06:09;;;;;;;3.78;1.63;;;;;;;;;;5071292;28;20032;-76
2023/03/01 12:08:38;;;;;;;2.15;1.95;;;;;;;;;;5072238;28;20503;-74
2023/03/01 12:11:21;;;;;;;1.33;1.33;;;;;;;;;;5071387;28;20032;-74
2023/03/01 12:13:47;;;;;;;3.42;2.00;;;;;;;;;;5058611;28;20495;-77
2023/03/01 12:16:22;;;;;;;1.55;1.45;;;;;;;;;;5070701;28;20032;-73
2023/03/01 12:18:51;;;;;;;1.67;1.60;;;;;;;;;;5052242;28;20150;-73
2023/03/01 12:21:20;;;;;;;1.67;1.38;;;;;;;;;;5069681;28;20025;-73
2023/03/01 12:23:46;;;;;;;1.42;1.38;;;;;;;;;;5051647;28;20040;-75
2023/03/01 12:26:18;;;;;;;1.63;1.52;;;;;;;;;;5051367;28;20050;-75
2023/03/01 12:29:02;;;;;;;2.28;1.73;;;;;;;;;;5069364;28;20040;-74
2023/03/01 12:31:46;;;;;;;3.33;1.90;;;;;;;;;;5069171;28;20135;-75
2023/03/01 12:34:12;;;;;;;1.40;1.40;;;;;;;;;;5050729;28;20504;-74
2023/03/01 12:36:41;;;;;;;3.45;1.15;;;;;;;;;;5068513;28;20081;-74
2023/03/01 12:39:28;;;;;;;2.67;1.80;;;;;;;;;;5068747;28;20043;-73
2023/03/01 12:41:54;;;;;;;1.77;1.58;;;;;;;;;;5027166;28;20098;-73
2023/03/01 12:44:23;;;;;;;1.80;1.70;;;;;;;;;;5066614;28;20423;-78
2023/03/01 12:47:00;;;;;;;2.25;2.05;;;;;;;;;;5060310;28;20040;-77
2023/03/01 12:49:31;;;;;;;1.70;1.60;;;;;;;;;;5050468;28;20036;-75
2023/03/01 12:52:20;;;;;;;1.60;1.50;;;;;;;;;;5068420;28;20036;-78
2023/03/01 12:54:46;;;;;;;1.75;1.65;;;;;;;;;;5010125;28;20025;-75
2023/03/01 12:57:18;;;;;;;1.38;1.38;;;;;;;;;;5034662;28;20102;-79
2023/03/01 13:00:09;;;;;;;3.50;1.67;;;;;;;;;;5042515;28;20547;-78
2023/03/01 13:02:37;;;;;;;3.00;1.92;;;;;;;;;;5051481;28;20048;-79
2023/03/01 13:05:21;;;;;;;1.50;1.40;;;;;;;;;;5069298;28;20029;-78
2023/03/01 13:07:50;;;;;;;1.35;1.35;;;;;;;;;;5068749;28;20025;-78
2023/03/01 13:10:16;;;;;;;2.17;1.67;;;;;;;;;;5068623;28;20051;-76
2023/03/01 13:12:42;;;;;;;1.10;1.10;;;;;;;;;;5068331;28;20028;-78
2023/03/01 13:15:24;;;;;;;1.10;0.98;;;;;;;;;;5050493;28;20274;-74
2023/03/01 13:17:53;;;;;;;1.83;1.73;;;;;;;;;;5068700;28;20045;-77
2023/03/01 13:20:20;;;;;;;2.55;1.77;;;;;;;;;;5037999;28;20569;-77
2023/03/01 13:22:47;;;;;;;1.48;1.48;;;;;;;;;;5050613;28;20059;-77
2023/03/01 13:25:19;;;;;;;1.50;1.50;;;;;;;;;;5068974;28;20414;-77
2023/03/01 13:27:45;;;;;;;3.05;2.03;;;;;;;;;;5050422;28;20036;-76
2023/03/01 13:30:32;;;;;;;4.20;1.63;;;;;;;;;;5050507;28;20048;-76
2023/03/01 13:33:17;;;;;;;1.98;1.77;;;;;;;;;;5049891;28;20044;-78
2023/03/01 13:35:46;;;;;;;1.30;1.25;;;;;;;;;;5068223;28;20583;-77
2023/03/01 13:38:31;;;;;;;2.03;1.90;;;;;;;;;;5049742;28;20086;-78
2023/03/01 13:40:59;;;;;;;1.75;1.65;;;;;;;;;;5032851;28;20029;-78
2023/03/01 13:43:31;;;;;;;2.40;2.20;;;;;;;;;;5068255;28;20049;-77
2023/03/01 13:45:57;;;;;;;2.00;1.90;;;;;;;;;;5068295;28;20024;-78
2023/03/01 13:48:24;;;;;;;1.48;1.35;;;;;;;;;;5068519;28;20040;-78
2023/03/01 13:50:55;;;;;;;1.80;1.60;;;;;;;;;;5050511;28;20020;-77
2023/03/01 13:53:24;;;;;;;3.15;1.77;;;;;;;;;;5068561;28;20047;-77
2023/03/01 13:56:16;;;;;;;2.03;1.88;;;;;;;;;;5068274;28;20028;-77
2023/03/01 13:58:48;;;;;;;1.58;1.48;;;;;;;;;;5064989;28;20519;-77
2023/03/01 14:01:33;;;;;;;1.48;1.20;;;;;;;;;;5068556;28;20032;-76
2023/03/01 14:03:59;;;;;;;1.90;1.80;;;;;;;;;;5037315;28;20047;-76
2023/03/01 14:06:30;;;;;;;1.73;1.63;;;;;;;;;;5047471;28;20108;-75
2023/03/01 14:09:01;;;;;;;1.92;1.83;;;;;;;;;;5067948;28;20032;-76
2023/03/01 14:11:39;;;;;;;2.42;2.22;;;;;;;;;;5068350;28;20178;-75
2023/03/01 14:14:14;;;;;;;1.90;1.63;;;;;;;;;;5050552;28;20116;-74
2023/03/01 14:16:49;;;;;;;2.35;1.65;;;;;;;;;;5045166;28;20050;-74
2023/03/01 14:19:25;;;;;;;1.80;1.70;;;;;;;;;;5071444;28;20036;-75
2023/03/01 14:22:06;;;;;;;1.23;1.23;;;;;;;;;;5054214;28;20510;-78
2023/03/01 14:24:32;;;;;;;2.25;1.73;;;;;;;;;;5036742;28;20036;-77
2023/03/01 14:27:00;;;;;;;1.38;1.38;;;;;;;;;;5071869;28;20086;-77
2023/03/01 14:29:27;;;;;;;2.72;1.85;;;;;;;;;;5040711;28;20044;-78
2023/03/01 14:31:54;;;;;;;3.45;1.40;;;;;;;;;;5054396;28;20070;-78
2023/03/01 14:34:21;;;;;;;2.50;2.28;;;;;;;;;;5072105;28;20060;-78
2023/03/01 14:36:47;;;;;;;2.38;1.65;;;;;;;;;;5072267;28;20044;-76
2023/03/01 14:39:16;;;;;;;1.50;1.40;;;;;;;;;;5071615;28;20677;-75
2023/03/01 14:41:42;;;;;;;1.63;1.52;;;;;;;;;;5071166;28;20056;-77
2023/03/01 14:44:15;;;;;;;2.92;1.70;;;;;;;;;;5069137;28;20044;-77
2023/03/01 14:46:41;;;;;;;1.17;1.17;;;;;;;;;;5071541;28;20582;-76
2023/03/01 14:49:10;;;;;;;1.70;1.60;;;;;;;;;;5045079;28;20028;-76
2023/03/01 14:51:39;;;;;;;2.22;2.03;;;;;;;;;;5070347;28;20493;-75
2023/03/01 14:54:18;;;;;;;1.90;1.80;;;;;;;;;;5053659;28;20028;-76